^^
Station Historical Data
Daily Summary for January 17, 2018 Units:  Metric    English   Both
« Previous Day
Next Day »
Daily Weekly Monthly Yearly Custom
  High: Low: Average:
Temperature: -17.8 °C -21.8 °C -21.3 °C
Dew Point: -17.8 °C -23.4 °C -22.3 °C
Humidity: Humidity% 72% 87%
Wind Speed: 0km/h 0km/h 7.4km/h
Wind Gust: 0km/h - -
Wind- - ESE
Pressure: 0 hPa 33741.5 hPa -
Precipitation: 38.1 mm    
Historical Graphs
 
 
Tabular Data for January 17, 2018
Time Temperature Dew Point Pressure Wind Wind Speed Wind Gust Humidity Rainfall Rate (Hourly) solar Conditions
-17.8 °C -17.8 °C 0 hPa Calm     Humidity% 0 mm SoftwareType W/m2 Conditions
00:07 -21.1 °C -23.3 °C 33937.9 hPa ENE 12.7 km/h 31.1 km/h 73% 0 mm WeatherDisplay:10.37 W/m2 FEW
00:14 -21.1 °C -23.3 °C 33937.9 hPa East 20.9 km/h 20.9 km/h 73% 0 mm WeatherDisplay:10.37 W/m2 FEW
00:19 -21.1 °C -23.4 °C 33937.9 hPa ESE 15 km/h 29.8 km/h 72% 0 mm WeatherDisplay:10.37 W/m2 FEW
00:24 -21.1 °C -23.4 °C 33924.3 hPa East 8 km/h 9 km/h 72% 0 mm WeatherDisplay:10.37 W/m2 FEW
00:29 -21.1 °C -23.4 °C 33924.3 hPa ESE 11.1 km/h 41.7 km/h 72% 0 mm WeatherDisplay:10.37 W/m2 FEW
00:37 -21.2 °C -23.3 °C 33924.3 hPa East 16.6 km/h 20.9 km/h 74% 0 mm WeatherDisplay:10.37 W/m2 FEW
00:46 -21.2 °C -23.1 °C 33924.3 hPa SSE 19.6 km/h 20.9 km/h 76% 0 mm WeatherDisplay:10.37 W/m2 FEW
00:56 -21.2 °C -23 °C 33924.3 hPa SE 12.2 km/h 23.8 km/h 77% 0 mm WeatherDisplay:10.37 W/m2 FEW
01:02 -21.2 °C -23.1 °C 33914.2 hPa South 17.5 km/h 29.8 km/h 77% 0 mm WeatherDisplay:10.37 W/m2 FEW
01:16 -21.2 °C -23.1 °C 33914.2 hPa ESE 9 km/h 26.9 km/h 77% 0 mm WeatherDisplay:10.37 W/m2 FEW
01:21 -21.3 °C -23.2 °C 33914.2 hPa ESE 9.3 km/h 29.8 km/h 77% 0 mm WeatherDisplay:10.37 W/m2 FEW
01:31 -21.3 °C -23.2 °C 33900.6 hPa ESE 15.3 km/h 35.7 km/h 78% 0 mm WeatherDisplay:10.37 W/m2 FEW
01:36 -21.4 °C -23.2 °C 33900.6 hPa ENE 21.7 km/h 32.8 km/h 78% 0 mm WeatherDisplay:10.37 W/m2 FEW
01:46 -21.4 °C -23.1 °C 33900.6 hPa NE 16.3 km/h 50.7 km/h 79% 0 mm WeatherDisplay:10.37 W/m2 FEW
01:51 -21.4 °C -23.1 °C 33900.6 hPa East 1 km/h 17.9 km/h 80% 0 mm WeatherDisplay:10.37 W/m2 FEW
02:03 -21.5 °C -23 °C 33900.6 hPa SE 8 km/h 17.9 km/h 81% 0 mm WeatherDisplay:10.37 W/m2 FEW
02:08 -21.5 °C -22.9 °C 33900.6 hPa South 16.3 km/h 32.8 km/h 82% 0 mm WeatherDisplay:10.37 W/m2 FEW
02:19 -21.4 °C -22.9 °C 33900.6 hPa SE 28 km/h 38.8 km/h 82% 0 mm WeatherDisplay:10.37 W/m2 FEW
02:24 -21.4 °C -22.8 °C 33900.6 hPa ESE 12.4 km/h 29.8 km/h 82% 0 mm WeatherDisplay:10.37 W/m2 FEW
02:30 -21.4 °C -22.7 °C 33890.5 hPa SE 10.3 km/h 20.9 km/h 83% 0 mm WeatherDisplay:10.37 W/m2 FEW
02:40 -21.3 °C -22.7 °C 33900.6 hPa ESE 6.9 km/h 9 km/h 83% 0 mm WeatherDisplay:10.37 W/m2 FEW
02:45 -21.3 °C -22.7 °C 33890.5 hPa SE 8 km/h 17.9 km/h 83% 0 mm WeatherDisplay:10.37 W/m2 FEW
02:50 -21.3 °C -22.7 °C 33890.5 hPa SSE 16.1 km/h 35.7 km/h 83% 0 mm WeatherDisplay:10.37 W/m2 FEW
02:55 -21.3 °C -22.7 °C 33890.5 hPa ENE 12.4 km/h 23.8 km/h 83% 0 mm WeatherDisplay:10.37 W/m2 FEW
03:04 -21.4 °C -22.8 °C 33880.3 hPa SSE 23 km/h 36.2 km/h 82% 0 mm WeatherDisplay:10.37 W/m2 FEW
03:15 -21.4 °C -22.8 °C 33880.3 hPa SE 7.2 km/h 25.9 km/h 82% 0 mm WeatherDisplay:10.37 W/m2 FEW
03:20 -21.5 °C -23 °C 33880.3 hPa NE 14 km/h 35.7 km/h 81% 0 mm WeatherDisplay:10.37 W/m2 FEW
03:26 -21.5 °C -23 °C 33880.3 hPa ESE 23.5 km/h 50.7 km/h 81% 0 mm WeatherDisplay:10.37 W/m2 FEW
03:35 -21.6 °C -23.1 °C 33880.3 hPa SE 15.8 km/h 32.8 km/h 81% 0 mm WeatherDisplay:10.37 W/m2 FEW
03:47 -21.6 °C -23.1 °C 33880.3 hPa ESE 19.5 km/h 38.8 km/h 81% 0 mm WeatherDisplay:10.37 W/m2 FEW
03:59 -21.6 °C -23.1 °C 33866.8 hPa ESE 23.3 km/h 35.7 km/h 81% 0 mm WeatherDisplay:10.37 W/m2 FEW
04:09 -21.6 °C -23.1 °C 33866.8 hPa ESE 18.2 km/h 38.8 km/h 81% 0 mm WeatherDisplay:10.37 W/m2 FEW
04:14 -21.6 °C -23.2 °C 33866.8 hPa SSE 27.2 km/h 62.6 km/h 81% 0 mm WeatherDisplay:10.37 W/m2 FEW
04:19 -21.6 °C -23.1 °C 33880.3 hPa East 16.3 km/h 38.8 km/h 81% 0 mm WeatherDisplay:10.37 W/m2 FEW
04:31 -21.6 °C -23.2 °C 33880.3 hPa East 11.6 km/h 29.8 km/h 81% 0 mm WeatherDisplay:10.37 W/m2 FEW
04:38 -21.6 °C -23.2 °C 33880.3 hPa East 19.6 km/h 29.8 km/h 80% 0 mm WeatherDisplay:10.37 W/m2 FEW
04:49 -21.6 °C -23.2 °C 33866.8 hPa SE 19.2 km/h 32.8 km/h 80% 0 mm WeatherDisplay:10.37 W/m2 FEW
04:59 -21.6 °C -23.2 °C 33866.8 hPa SSE 20 km/h 35.7 km/h 80% 0 mm WeatherDisplay:10.37 W/m2 FEW
05:06 -21.6 °C -23.2 °C 33866.8 hPa ESE 9.8 km/h 41.7 km/h 80% 0 mm WeatherDisplay:10.37 W/m2 FEW
05:11 -21.7 °C -23.3 °C 33866.8 hPa ENE 17.5 km/h 29.8 km/h 80% 0 mm WeatherDisplay:10.37 W/m2 FEW
05:19 -21.7 °C -23.3 °C 33866.8 hPa SE 9.7 km/h 20.9 km/h 80% 0 mm WeatherDisplay:10.37 W/m2 FEW
05:27 -21.7 °C -23.2 °C 33856.6 hPa East 5.5 km/h 10.3 km/h 81% 0 mm WeatherDisplay:10.37 W/m2 FEW
05:33 -21.6 °C -23.2 °C 33856.6 hPa SSW 21.6 km/h 32.8 km/h 81% 0 mm WeatherDisplay:10.37 W/m2 FEW
05:38 -21.6 °C -22.9 °C 33856.6 hPa ESE 16.6 km/h 26.9 km/h 83% 0 mm WeatherDisplay:10.37 W/m2 FEW
05:53 -21.6 °C -22.9 °C 33856.6 hPa SSW 7.2 km/h 17.9 km/h 84% 0 mm WeatherDisplay:10.37 W/m2 FEW
06:01 -21.6 °C -22.9 °C 33856.6 hPa ENE 11.9 km/h 29.8 km/h 84% 0 mm WeatherDisplay:10.37 W/m2 FEW
06:06 -21.7 °C -23 °C 33856.6 hPa ESE 15.3 km/h 35.7 km/h 83% 0 mm WeatherDisplay:10.37 W/m2 FEW
06:14 -21.7 °C -22.9 °C 33856.6 hPa SE 14 km/h 29.8 km/h 84% 0 mm WeatherDisplay:10.37 W/m2 FEW
06:20 -21.7 °C -22.9 °C 33843.1 hPa SE 10.6 km/h 20.9 km/h 84% 0 mm WeatherDisplay:10.37 W/m2 FEW
06:36 -21.7 °C -22.9 °C 33843.1 hPa NE 11.6 km/h 20.9 km/h 84% 0 mm WeatherDisplay:10.37 W/m2 FEW
06:44 -21.7 °C -22.9 °C 33843.1 hPa SE 4.7 km/h 23.8 km/h 84% 0 mm WeatherDisplay:10.37 W/m2 FEW
06:50 -21.7 °C -22.9 °C 33832.9 hPa East 15.3 km/h 23.8 km/h 85% 0 mm WeatherDisplay:10.37 W/m2 FEW
06:55 -21.7 °C -22.9 °C 33832.9 hPa SSE 12.7 km/h 35.7 km/h 85% 0 mm WeatherDisplay:10.37 W/m2 FEW
07:04 -21.7 °C -22.9 °C 33832.9 hPa East 14 km/h 23.8 km/h 85% 0 mm WeatherDisplay:10.37 W/m2 FEW
07:09 -21.7 °C -22.9 °C 33832.9 hPa East 3.1 km/h 9 km/h 85% 0 mm WeatherDisplay:10.37 W/m2 FEW
07:14 -21.7 °C -22.9 °C 33832.9 hPa SSE 17.1 km/h 36.2 km/h 85% 0 mm WeatherDisplay:10.37 W/m2 FEW
07:19 -21.7 °C -22.9 °C 33832.9 hPa ESE 11.9 km/h 32.8 km/h 85% 0 mm WeatherDisplay:10.37 W/m2 FEW
07:29 -21.7 °C -22.9 °C 33832.9 hPa SSE 10.3 km/h 35.7 km/h 84% 0 mm WeatherDisplay:10.37 W/m2 FEW
07:36 -21.6 °C -22.9 °C 33822.8 hPa ESE 14.5 km/h 29.8 km/h 84% 0 mm WeatherDisplay:10.37 W/m2 FEW
07:42 -21.6 °C -22.9 °C 33822.8 hPa ESE 18.8 km/h 23.8 km/h 84% 0 mm WeatherDisplay:10.37 W/m2 FEW
07:47 -21.6 °C -22.9 °C 33822.8 hPa ENE 12.4 km/h 47.6 km/h 83% 0 mm WeatherDisplay:10.37 W/m2 FEW
07:58 -21.6 °C -22.9 °C 33822.8 hPa SSE 22.5 km/h 32.8 km/h 83% 0 mm WeatherDisplay:10.37 W/m2 FEW
08:03 -21.6 °C -22.9 °C 33822.8 hPa SSE 14.2 km/h 32.8 km/h 82% 0 mm WeatherDisplay:10.37 W/m2 FEW
08:10 -21.6 °C -22.9 °C 33822.8 hPa SE 15 km/h 36.2 km/h 82% 0 mm WeatherDisplay:10.37 W/m2 FEW
08:15 -21.5 °C -22.9 °C 33822.8 hPa SE 15 km/h 29.8 km/h 82% 0 mm WeatherDisplay:10.37 W/m2 FEW
08:25 -21.5 °C -22.9 °C 33822.8 hPa SE 2.3 km/h 9 km/h 82% 0 mm WeatherDisplay:10.37 W/m2 FEW
08:31 -21.5 °C -22.9 °C 33822.8 hPa SSE 8.9 km/h 23.8 km/h 82% 0 mm WeatherDisplay:10.37 W/m2 FEW
08:36 -21.5 °C -22.9 °C 33822.8 hPa ESE 10.3 km/h 26.9 km/h 82% 0 mm WeatherDisplay:10.37 W/m2 FEW
08:49 -21.5 °C -22.9 °C 33822.8 hPa SE 13.7 km/h 38.8 km/h 82% 0 mm WeatherDisplay:10.37 W/m2 FEW
08:54 -21.5 °C -22.9 °C 33822.8 hPa South 25.4 km/h 38.8 km/h 82% 0 mm WeatherDisplay:10.37 W/m2 FEW
09:01 -21.5 °C -22.9 °C 33822.8 hPa SSW 11.6 km/h 23.8 km/h 82% 0 mm WeatherDisplay:10.37 W/m2 FEW
09:06 -21.5 °C -22.9 °C 33822.8 hPa ESE 5.1 km/h 12.9 km/h 82% 0 mm WeatherDisplay:10.37 W/m2 FEW
09:16 -21.5 °C -23 °C 33822.8 hPa SE 15.3 km/h 32.8 km/h 81% 0 mm WeatherDisplay:10.37 W/m2 FEW
09:29 -21.6 °C -22.9 °C 33822.8 hPa East 10.9 km/h 26.9 km/h 82% 0 mm WeatherDisplay:10.37 W/m2 FEW
09:40 -21.6 °C -23 °C 33822.8 hPa East 8.5 km/h 15.6 km/h 82% 0 mm WeatherDisplay:10.37 W/m2 FEW
09:45 -21.6 °C -23 °C 33822.8 hPa SE 15.3 km/h 29.8 km/h 82% 0 mm WeatherDisplay:10.37 W/m2 FEW
09:50 -21.6 °C -23 °C 33822.8 hPa SE 2.3 km/h 23.8 km/h 82% 0 mm WeatherDisplay:10.37 W/m2 FEW
09:55 -21.6 °C -22.9 °C 33822.8 hPa East 19.6 km/h 35.7 km/h 83% 0 mm WeatherDisplay:10.37 W/m2 FEW
10:13 -21.7 °C -22.9 °C 33822.8 hPa South 15.3 km/h 23.8 km/h 84% 0 mm WeatherDisplay:10.37 W/m2 FEW
10:18 -21.7 °C -22.9 °C 33822.8 hPa East 10.6 km/h 26.9 km/h 84% 0 mm WeatherDisplay:10.37 W/m2 FEW
10:23 -21.7 °C -22.8 °C 33822.8 hPa SE 8.9 km/h 20.9 km/h 85% 0 mm WeatherDisplay:10.37 W/m2 FEW
10:34 -21.7 °C -22.8 °C 33822.8 hPa South 9 km/h 25.9 km/h 86% 0 mm WeatherDisplay:10.37 W/m2 FEW
10:39 -21.7 °C -22.8 °C 33809.2 hPa ESE 5.1 km/h 11.9 km/h 86% 0 mm WeatherDisplay:10.37 W/m2 FEW
10:49 -21.7 °C -22.8 °C 33809.2 hPa SSW 14.8 km/h 38.8 km/h 86% 0 mm WeatherDisplay:10.37 W/m2 FEW
10:59 -21.7 °C -22.7 °C 33809.2 hPa ESE 7.6 km/h 17.9 km/h 87% 0 mm WeatherDisplay:10.37 W/m2 FEW
11:04 -21.8 °C -22.7 °C 33809.2 hPa SE 6.3 km/h 20.8 km/h 88% 0 mm WeatherDisplay:10.37 W/m2 FEW
11:09 -21.8 °C -22.7 °C 33809.2 hPa ESE 6.9 km/h 15 km/h 88% 0 mm WeatherDisplay:10.37 W/m2 FEW
11:14 -21.8 °C -22.7 °C 33809.2 hPa SE 8.2 km/h 20.9 km/h 88% 0 mm WeatherDisplay:10.37 W/m2 FEW
11:19 -21.7 °C -22.6 °C 33809.2 hPa ESE 8.9 km/h 20.9 km/h 89% 0 mm WeatherDisplay:10.37 W/m2 FEW
11:24 -21.7 °C -22.6 °C 33809.2 hPa South 1.8 km/h 5.1 km/h 89% 0 mm WeatherDisplay:10.37 W/m2 FEW
11:44 -21.7 °C -22.6 °C 33799.1 hPa ESE 11.9 km/h 26.9 km/h 89% 0 mm WeatherDisplay:10.37 W/m2 FEW
11:49 -21.8 °C -22.6 °C 33799.1 hPa SE 9.7 km/h 17.9 km/h 89% 0 mm WeatherDisplay:10.37 W/m2 FEW
11:54 -21.8 °C -22.6 °C 33799.1 hPa SE 17.1 km/h 23.8 km/h 89% 0 mm WeatherDisplay:10.37 W/m2 FEW
11:59 -21.8 °C -22.6 °C 33799.1 hPa SE 17.5 km/h 35.7 km/h 89% 0 mm WeatherDisplay:10.37 W/m2 FEW
12:04 -21.8 °C -22.6 °C 33788.9 hPa SE 9.7 km/h 20.9 km/h 90% 0 mm WeatherDisplay:10.37 W/m2 FEW
12:13 -21.8 °C -22.6 °C 33788.9 hPa South 8.5 km/h 15 km/h 89% 0 mm WeatherDisplay:10.37 W/m2 FEW
12:26 -21.8 °C -22.6 °C 33788.9 hPa ESE 15.3 km/h 29.8 km/h 89% 0 mm WeatherDisplay:10.37 W/m2 FEW
12:31 -21.7 °C -22.6 °C 33788.9 hPa SE 0.3 km/h 17.9 km/h 89% 0 mm WeatherDisplay:10.37 W/m2 FEW
12:39 -21.7 °C -22.4 °C 33788.9 hPa ESE 3.7 km/h 9 km/h 90% 0 mm WeatherDisplay:10.37 W/m2 FEW
12:47 -21.7 °C -22.6 °C 33788.9 hPa SE 8.2 km/h 20.9 km/h 89% 0 mm WeatherDisplay:10.37 W/m2 FEW
12:55 -21.8 °C -22.5 °C 33788.9 hPa East 2.6 km/h 9 km/h 90% 0 mm WeatherDisplay:10.37 W/m2 FEW
13:00 -21.7 °C -22.6 °C 33775.4 hPa ENE 5.6 km/h 15 km/h 89% 0 mm WeatherDisplay:10.37 W/m2 FEW
13:05 -21.7 °C -22.6 °C 33775.4 hPa ENE 9.8 km/h 9.8 km/h 89% 0 mm WeatherDisplay:10.37 W/m2 FEW
13:12 -21.7 °C -22.6 °C 33775.4 hPa East 1.8 km/h 11.9 km/h 89% 7.62 mm WeatherDisplay:10.37 W/m2 RA
13:17 -21.7 °C -22.6 °C 33775.4 hPa SSW 14.5 km/h 29.8 km/h 88% 7.62 mm WeatherDisplay:10.37 W/m2 FEW
13:22 -21.7 °C -22.6 °C 33775.4 hPa Calm   3.1 km/h 88% 7.62 mm WeatherDisplay:10.37 W/m2 FEW
13:31 -21.7 °C -22.6 °C 33775.4 hPa ENE 2.6 km/h 9 km/h 88% 7.62 mm WeatherDisplay:10.37 W/m2 FEW
13:36 -21.7 °C -22.7 °C 33775.4 hPa ESE 7.7 km/h 15.6 km/h 88% 7.62 mm WeatherDisplay:10.37 W/m2 FEW
13:57 -21.8 °C -22.7 °C 33775.4 hPa ENE 4.2 km/h 9 km/h 88% 7.62 mm WeatherDisplay:10.37 W/m2 FEW
14:02 -21.8 °C -22.7 °C 33765.2 hPa ESE 6 km/h 9 km/h 88% 7.62 mm WeatherDisplay:10.37 W/m2 FEW
14:07 -21.8 °C -22.7 °C 33775.4 hPa ESE 6.4 km/h 17.9 km/h 88% 0 mm WeatherDisplay:10.37 W/m2 FEW
14:12 -21.8 °C -22.7 °C 33775.4 hPa SSE 9 km/h 17.9 km/h 88% 0 mm WeatherDisplay:10.37 W/m2 FEW
14:17 -21.8 °C -22.7 °C 33765.2 hPa ESE 3.4 km/h 15 km/h 88% 0 mm WeatherDisplay:10.37 W/m2 FEW
14:26 -21.8 °C -22.7 °C 33775.4 hPa ESE 1 km/h 6 km/h 89% 0 mm WeatherDisplay:10.37 W/m2 FEW
14:37 -21.8 °C -22.6 °C 33765.2 hPa SE 4.3 km/h 10.3 km/h 89% 0 mm WeatherDisplay:10.37 W/m2 FEW
14:45 -21.8 °C -22.6 °C 33765.2 hPa SE 4.2 km/h 9 km/h 90% 0 mm WeatherDisplay:10.37 W/m2 FEW
14:55 -21.7 °C -22.5 °C 33765.2 hPa ESE 8.2 km/h 17.9 km/h 90% 0 mm WeatherDisplay:10.37 W/m2 FEW
15:06 -21.7 °C -22.4 °C 33765.2 hPa SE 8.2 km/h 17.9 km/h 90% 0 mm WeatherDisplay:10.37 W/m2 FEW
15:11 -21.6 °C -22.4 °C 33765.2 hPa ESE 5.6 km/h 12.9 km/h 90% 0 mm WeatherDisplay:10.37 W/m2 FEW
15:16 -21.6 °C -22.3 °C 33765.2 hPa SSE 11.4 km/h 11.9 km/h 91% 0 mm WeatherDisplay:10.37 W/m2 FEW
15:25 -21.6 °C -22.4 °C 33765.2 hPa ENE 3.9 km/h 9 km/h 90% 0 mm WeatherDisplay:10.37 W/m2 FEW
15:32 -21.6 °C -22.4 °C 33765.2 hPa SE 5.5 km/h 20.9 km/h 90% 0 mm WeatherDisplay:10.37 W/m2 FEW
15:45 -21.6 °C -22.3 °C 33765.2 hPa SSE 5 km/h 15.6 km/h 91% 0 mm WeatherDisplay:10.37 W/m2 FEW
15:50 -21.6 °C -22.3 °C 33765.2 hPa Calm   9 km/h 90% 0 mm WeatherDisplay:10.37 W/m2 FEW
15:58 -21.6 °C -22.3 °C 33765.2 hPa East 1.6 km/h 10.3 km/h 90% 0 mm WeatherDisplay:10.37 W/m2 FEW
16:09 -21.6 °C -22.2 °C 33751.6 hPa SE 2.1 km/h 9 km/h 91% 0 mm WeatherDisplay:10.37 W/m2 FEW
16:16 -21.6 °C -22.2 °C 33751.6 hPa ENE 8.2 km/h 11.9 km/h 91% 0 mm WeatherDisplay:10.37 W/m2 FEW
16:23 -21.6 °C -22.2 °C 33751.6 hPa ENE 2.1 km/h 6 km/h 91% 0 mm WeatherDisplay:10.37 W/m2 FEW
16:34 -21.5 °C -22.2 °C 33751.6 hPa ESE 2.6 km/h 9 km/h 91% 7.62 mm WeatherDisplay:10.37 W/m2 RA
16:45 -21.5 °C -22.2 °C 33751.6 hPa ENE 4.2 km/h 9 km/h 91% 7.62 mm WeatherDisplay:10.37 W/m2 FEW
16:51 -21.4 °C -22.1 °C 33751.6 hPa Calm   6 km/h 92% 7.62 mm WeatherDisplay:10.37 W/m2 FEW
17:00 -21.4 °C -22.1 °C 33751.6 hPa ESE 1.8 km/h 9 km/h 92% 7.62 mm WeatherDisplay:10.37 W/m2 FEW
17:10 -21.4 °C -22 °C 33751.6 hPa ENE 5.6 km/h 9 km/h 92% 12.7 mm WeatherDisplay:10.37 W/m2 RA
17:17 -21.3 °C -22 °C 33751.6 hPa Calm     92% 12.7 mm WeatherDisplay:10.37 W/m2 FEW
17:22 -21.3 °C -21.9 °C 33751.6 hPa ENE 0.5 km/h 7.7 km/h 92% 12.7 mm WeatherDisplay:10.37 W/m2 FEW
17:28 -21.3 °C -21.9 °C 33751.6 hPa SE 0.8 km/h 9 km/h 92% 12.7 mm WeatherDisplay:10.37 W/m2 RA
17:33 -21.3 °C -21.9 °C 33751.6 hPa Calm     92% 12.7 mm WeatherDisplay:10.37 W/m2 RA
17:39 -21.3 °C -21.9 °C 33751.6 hPa Calm     92% 12.7 mm WeatherDisplay:10.37 W/m2 FEW
17:45 -21.3 °C -21.9 °C 33751.6 hPa Calm     92% 12.7 mm WeatherDisplay:10.37 W/m2 FEW
17:58 -21.3 °C -21.9 °C 33751.6 hPa SE 1.8 km/h 15 km/h 92% 12.7 mm WeatherDisplay:10.37 W/m2 RA
18:04 -21.2 °C -21.8 °C 33751.6 hPa ESE 5 km/h 17.9 km/h 92% 12.7 mm WeatherDisplay:10.37 W/m2 FEW
18:09 -21.3 °C -21.9 °C 33751.6 hPa ESE 4.2 km/h 10.3 km/h 92% 12.7 mm WeatherDisplay:10.37 W/m2 FEW
18:14 -21.2 °C -21.8 °C 33741.5 hPa South 0.3 km/h 6 km/h 92% 12.7 mm WeatherDisplay:10.37 W/m2 FEW
18:19 -21.3 °C -21.9 °C 33741.5 hPa SSE 1.3 km/h 9 km/h 92% 12.7 mm WeatherDisplay:10.37 W/m2 FEW
18:24 -21.2 °C -21.8 °C 33751.6 hPa SE 1 km/h 11.9 km/h 92% 12.7 mm WeatherDisplay:10.37 W/m2 FEW
18:41 -21.2 °C -21.8 °C 33751.6 hPa ENE 3.9 km/h 9 km/h 92% 7.62 mm WeatherDisplay:10.37 W/m2 FEW
18:49 -21.2 °C -21.8 °C 33751.6 hPa ESE 0.8 km/h 9 km/h 92% 7.62 mm WeatherDisplay:10.37 W/m2 FEW
18:59 -21.2 °C -21.8 °C 33751.6 hPa SE 5.1 km/h 15 km/h 92% 0 mm WeatherDisplay:10.37 W/m2 FEW
19:04 -21.2 °C -21.8 °C 33751.6 hPa East 2.3 km/h 9 km/h 92% 0 mm WeatherDisplay:10.37 W/m2 FEW
19:19 -21.2 °C -21.8 °C 33751.6 hPa Calm     92% 7.62 mm WeatherDisplay:10.37 W/m2 FEW
19:26 -21.2 °C -21.8 °C 33751.6 hPa SE 4.7 km/h 11.9 km/h 92% 7.62 mm WeatherDisplay:10.37 W/m2 FEW
19:34 -21.2 °C -21.8 °C 33751.6 hPa Calm     92% 7.62 mm WeatherDisplay:10.37 W/m2 FEW
19:39 -21.2 °C -21.8 °C 33751.6 hPa SE 0.3 km/h 3.1 km/h 92% 7.62 mm WeatherDisplay:10.37 W/m2 FEW
19:52 -21.1 °C -21.7 °C 33751.6 hPa Calm     92% 7.62 mm WeatherDisplay:10.37 W/m2 FEW
19:58 -21.1 °C -21.7 °C 33751.6 hPa SE 1.8 km/h 9 km/h 92% 7.62 mm WeatherDisplay:10.37 W/m2 FEW
20:08 -21.1 °C -21.7 °C 33751.6 hPa Calm     92% 0 mm WeatherDisplay:10.37 W/m2 FEW
20:13 -21.1 °C -21.7 °C 33751.6 hPa ESE 2.1 km/h 7.7 km/h 92% 0 mm WeatherDisplay:10.37 W/m2 FEW
20:21 -21.1 °C -21.7 °C 33751.6 hPa Calm     92% 7.62 mm WeatherDisplay:10.37 W/m2 RA
20:28 -21 °C -21.6 °C 33751.6 hPa Calm     92% 7.62 mm WeatherDisplay:10.37 W/m2 FEW
20:38 -20.9 °C -21.6 °C 33741.5 hPa Calm     92% 7.62 mm WeatherDisplay:10.37 W/m2 FEW
20:46 -20.9 °C -21.6 °C 33741.5 hPa Calm     92% 7.62 mm WeatherDisplay:10.37 W/m2 FEW
20:51 -20.9 °C -21.6 °C 33741.5 hPa Calm     92% 7.62 mm WeatherDisplay:10.37 W/m2 FEW
20:57 -20.9 °C -21.6 °C 33741.5 hPa East 0.3 km/h 6 km/h 92% 7.62 mm WeatherDisplay:10.37 W/m2 FEW
21:03 -20.9 °C -21.5 °C 33741.5 hPa Calm     92% 7.62 mm WeatherDisplay:10.37 W/m2 FEW
21:08 -20.9 °C -21.5 °C 33741.5 hPa Calm     92% 7.62 mm WeatherDisplay:10.37 W/m2 FEW
21:17 -20.9 °C -21.5 °C 33741.5 hPa Calm     92% 7.62 mm WeatherDisplay:10.37 W/m2 FEW
21:26 -20.9 °C -21.5 °C 33751.6 hPa Calm     92% 0 mm WeatherDisplay:10.37 W/m2 FEW
21:34 -20.9 °C -21.5 °C 33751.6 hPa Calm     92% 0 mm WeatherDisplay:10.37 W/m2 FEW
21:40 -20.8 °C -21.4 °C 33751.6 hPa Calm     92% 0 mm WeatherDisplay:10.37 W/m2 FEW
21:45 -20.8 °C -21.4 °C 33751.6 hPa ENE 1.6 km/h 6 km/h 92% 0 mm WeatherDisplay:10.37 W/m2 FEW
21:50 -20.8 °C -21.4 °C 33751.6 hPa Calm     92% 0 mm WeatherDisplay:10.37 W/m2 FEW
21:55 -20.8 °C -21.4 °C 33751.6 hPa Calm     92% 0 mm WeatherDisplay:10.37 W/m2 FEW
22:00 -20.8 °C -21.4 °C 33751.6 hPa Calm     92% 0 mm WeatherDisplay:10.37 W/m2 FEW
22:06 -20.8 °C -21.4 °C 33751.6 hPa Calm     92% 0 mm WeatherDisplay:10.37 W/m2 FEW
22:11 -20.8 °C -21.4 °C 33751.6 hPa Calm     92% 0 mm WeatherDisplay:10.37 W/m2 FEW
22:16 -20.8 °C -21.4 °C 33765.2 hPa Calm     92% 0 mm WeatherDisplay:10.37 W/m2 FEW
22:21 -20.8 °C -21.4 °C 33765.2 hPa Calm     92% 0 mm WeatherDisplay:10.37 W/m2 FEW
22:26 -20.8 °C -21.4 °C 33751.6 hPa Calm     92% 0 mm WeatherDisplay:10.37 W/m2 FEW
22:33 -20.7 °C -21.3 °C 33751.6 hPa Calm     92% 0 mm WeatherDisplay:10.37 W/m2 FEW
22:37 -20.7 °C -21.3 °C 33751.6 hPa Calm     92% 7.62 mm WeatherDisplay:10.37 W/m2 RA
22:40 -20.7 °C -21.3 °C 33751.6 hPa Calm     92% 7.62 mm WeatherDisplay:10.37 W/m2 RA
22:45 -20.7 °C -21.3 °C 33751.6 hPa Calm     92% 7.62 mm WeatherDisplay:10.37 W/m2 RA
22:50 -20.7 °C -21.3 °C 33751.6 hPa Calm     92% 7.62 mm WeatherDisplay:10.37 W/m2 FEW
22:55 -20.7 °C -21.3 °C 33751.6 hPa Calm     92% 7.62 mm WeatherDisplay:10.37 W/m2 FEW
22:57 -20.7 °C -21.3 °C 33751.6 hPa Calm     92% 7.62 mm WeatherDisplay:10.37 W/m2 FEW
23:03 -20.7 °C -21.3 °C 33751.6 hPa Calm     92% 7.62 mm WeatherDisplay:10.37 W/m2 FEW
23:07 -20.7 °C -21.3 °C 33751.6 hPa Calm     92% 7.62 mm WeatherDisplay:10.37 W/m2 FEW
23:12 -20.7 °C -21.3 °C 33751.6 hPa Calm     92% 7.62 mm WeatherDisplay:10.37 W/m2 FEW
23:17 -20.7 °C -21.3 °C 33751.6 hPa Calm     92% 7.62 mm WeatherDisplay:10.37 W/m2 FEW
23:21 -20.7 °C -21.3 °C 33751.6 hPa Calm     92% 7.62 mm WeatherDisplay:10.37 W/m2 FEW
23:22 -20.7 °C -21.3 °C 33751.6 hPa Calm     92% 7.62 mm WeatherDisplay:10.37 W/m2 FEW
23:24 -20.7 °C -21.3 °C 33751.6 hPa Calm     92% 7.62 mm WeatherDisplay:10.37 W/m2 FEW
23:27 -20.7 °C -21.3 °C 33751.6 hPa Calm     92% 7.62 mm WeatherDisplay:10.37 W/m2 FEW
23:29 -20.7 °C -21.3 °C 33751.6 hPa Calm     92% 7.62 mm WeatherDisplay:10.37 W/m2 FEW
23:31 -20.7 °C -21.3 °C 33751.6 hPa Calm     92% 7.62 mm WeatherDisplay:10.37 W/m2 FEW
23:32 -20.7 °C -21.3 °C 33751.6 hPa Calm     92% 7.62 mm WeatherDisplay:10.37 W/m2 FEW
23:38 -20.7 °C -21.3 °C 33751.6 hPa Calm     92% 0 mm WeatherDisplay:10.37 W/m2 FEW
23:43 -20.7 °C -21.3 °C 33751.6 hPa Calm     92% 0 mm WeatherDisplay:10.37 W/m2 FEW
23:48 -20.7 °C -21.3 °C 33751.6 hPa Calm     92% 0 mm WeatherDisplay:10.37 W/m2 FEW
23:49 -20.7 °C -21.3 °C 33751.6 hPa Calm     92% 0 mm WeatherDisplay:10.37 W/m2 FEW
23:53 -20.7 °C -21.3 °C 33751.6 hPa Calm     92% 0 mm WeatherDisplay:10.37 W/m2 FEW
23:58 -20.7 °C -21.3 °C 33751.6 hPa Calm     92% 0 mm WeatherDisplay:10.37 W/m2 FEW
Tuulensuunkaari, Veikkola, Suomi
Compliments of Weather Underground - 2.25 mb